Terminal Aerodrome Forecast
Issued by NWS Tampa Bay Area, FL

Home | Current Version | Previous Version | Text Only | Print | Product List | Glossary On
Versions: 1 2 3 4 5 6 7 8 9 10 11 12
000
FTUS42 KTBW 170531
TAFSRQ
TAF
KSRQ 170531Z 1706/1806 06004KT P6SM SCT250
     FM171400 36006KT P6SM FEW035 BKN250
     FM171800 33016G25KT P6SM BKN035 BKN250
     FM180000 34012G20KT P6SM SCT030 SCT250=

USA.gov is the U.S. government's official web portal to all federal, state and local government web resources and services.